Time;durP1;ratioP1;P1;durP2;ratioP2;P2;SDS_P1;SDS_P2;PMS_P1;PMS_P2;Temp;Humidity;BMP_temperature;BMP_pressure;BME280_temperature;BME280_humidity;BME280_pressure;Samples;Min_cycle;Max_cycle;Signal;HPM_P1;HPM_P2
2024/03/30 00:03:22;;;;;;;15.00;7.30;;;;;;;10.19;76.14;97760.14;226939;1270;22561;-77
2024/03/30 00:08:26;;;;;;;15.70;7.20;;;;;;;10.17;76.55;97760.11;226882;1261;24421;-76
2024/03/30 00:13:28;;;;;;;14.70;6.40;;;;;;;10.13;76.33;97757.48;226848;1272;22540;-77
2024/03/30 00:18:30;;;;;;;16.80;6.10;;;;;;;10.06;76.36;97761.63;226882;1269;22931;-77
2024/03/30 00:23:32;;;;;;;14.10;5.90;;;;;;;10.00;76.58;97755.27;226906;1270;22546;-77
2024/03/30 00:28:35;;;;;;;17.30;6.90;;;;;;;9.95;76.68;97759.08;226857;1266;22539;-77
2024/03/30 00:33:37;;;;;;;17.50;6.40;;;;;;;9.88;76.95;97749.89;226847;1270;22531;-77
2024/03/30 00:38:43;;;;;;;15.30;5.90;;;;;;;9.81;76.86;97734.67;226866;1269;22603;-78
2024/03/30 00:43:45;;;;;;;14.80;6.80;;;;;;;9.74;77.14;97730.05;226846;1270;23188;-76
2024/03/30 00:48:47;;;;;;;16.30;5.80;;;;;;;9.68;77.26;97733.46;226934;1272;23038;-76
2024/03/30 00:53:49;;;;;;;12.60;5.40;;;;;;;9.63;77.54;97740.20;226723;1273;22539;-77
2024/03/30 00:58:51;;;;;;;15.30;6.10;;;;;;;9.54;77.46;97744.14;226896;1272;22549;-77
2024/03/30 01:03:53;;;;;;;12.30;6.00;;;;;;;9.43;77.52;97738.24;226933;1269;22536;-77
2024/03/30 01:08:55;;;;;;;18.30;5.80;;;;;;;9.34;77.63;97737.41;226952;1270;22531;-76
2024/03/30 01:13:57;;;;;;;13.90;6.00;;;;;;;9.25;77.68;97739.49;226904;1266;22750;-77
2024/03/30 01:18:59;;;;;;;13.40;6.30;;;;;;;9.19;78.11;97732.57;226736;1269;163742;-76
2024/03/30 01:24:01;;;;;;;15.80;6.20;;;;;;;9.15;78.24;97728.90;226839;1267;24228;-77
2024/03/30 01:29:06;;;;;;;12.40;5.40;;;;;;;9.15;78.62;97731.37;226972;1273;22559;-76
2024/03/30 01:34:08;;;;;;;12.40;5.40;;;;;;;9.17;78.77;97732.34;226873;1273;22554;-77
2024/03/30 01:39:10;;;;;;;15.20;5.70;;;;;;;9.21;78.73;97735.15;226859;1271;22542;-76
2024/03/30 01:44:12;;;;;;;18.10;5.80;;;;;;;9.24;78.99;97741.67;226925;1269;22538;-76
2024/03/30 01:49:14;;;;;;;12.40;5.90;;;;;;;9.27;78.89;97746.75;226947;1266;22639;-76
2024/03/30 01:54:19;;;;;;;15.80;6.80;;;;;;;9.29;78.92;97742.41;226862;1270;22543;-76
2024/03/30 01:59:21;;;;;;;24.40;7.90;;;;;;;9.30;79.14;97745.21;226897;1266;22535;-76
2024/03/30 02:04:25;;;;;;;16.80;6.70;;;;;;;9.29;79.11;97741.73;226837;1273;22581;-76
2024/03/30 02:09:27;;;;;;;18.70;6.80;;;;;;;9.31;79.46;97749.19;226838;1270;22542;-76
2024/03/30 02:14:30;;;;;;;17.00;6.80;;;;;;;9.31;79.42;97746.75;226910;1271;22539;-77
2024/03/30 02:19:43;;;;;;;19.20;7.20;;;;;;;9.27;79.27;97748.90;226864;1270;22582;-76
2024/03/30 02:24:45;;;;;;;15.50;6.90;;;;;;;9.20;79.45;97751.51;226939;1270;22531;-77
2024/03/30 02:29:52;;;;;;;18.40;7.50;;;;;;;9.15;79.45;97752.98;226842;1270;22538;-77
2024/03/30 02:34:54;;;;;;;23.10;7.80;;;;;;;9.08;79.66;97760.50;227009;1270;22541;-77
2024/03/30 02:39:56;;;;;;;16.30;7.70;;;;;;;9.04;79.62;97770.57;226891;1266;22558;-77
2024/03/30 02:44:58;;;;;;;17.40;7.60;;;;;;;9.00;79.85;97778.11;227011;1272;22586;-77
2024/03/30 02:50:01;;;;;;;18.80;7.30;;;;;;;8.98;79.83;97780.38;226979;1271;22537;-77
2024/03/30 02:55:03;;;;;;;15.80;7.00;;;;;;;8.95;79.83;97776.48;226928;1270;24944;-77
2024/03/30 03:00:08;;;;;;;18.90;7.20;;;;;;;8.94;79.99;97764.73;226893;1271;25335;-76
2024/03/30 03:05:10;;;;;;;16.70;6.90;;;;;;;8.93;80.07;97767.14;226853;1272;22542;-76
2024/03/30 03:10:12;;;;;;;12.90;6.20;;;;;;;8.93;80.31;97758.44;226809;1269;22574;-76
2024/03/30 03:15:14;;;;;;;21.90;6.90;;;;;;;8.92;80.27;97755.55;226848;1267;22532;-77
2024/03/30 03:20:16;;;;;;;17.60;7.10;;;;;;;8.91;80.28;97751.27;226897;1270;25243;-77
2024/03/30 03:25:18;;;;;;;14.10;6.60;;;;;;;8.88;80.24;97751.45;226811;1269;22540;-77
2024/03/30 03:30:20;;;;;;;20.00;5.90;;;;;;;8.85;80.37;97744.83;226947;1272;22558;-77
2024/03/30 03:35:22;;;;;;;12.80;5.30;;;;;;;8.82;80.48;97743.90;226848;1270;22551;-76
2024/03/30 03:40:24;;;;;;;13.80;6.20;;;;;;;8.82;80.53;97745.60;226870;1269;22538;-77
2024/03/30 03:45:26;;;;;;;15.00;5.40;;;;;;;8.80;80.52;97755.23;226819;1272;22611;-76
2024/03/30 03:50:28;;;;;;;17.20;5.90;;;;;;;8.80;80.86;97754.42;226926;1272;22568;-77
2024/03/30 03:55:32;;;;;;;15.90;5.20;;;;;;;8.80;80.82;97754.43;226952;1267;22535;-76
2024/03/30 04:00:34;;;;;;;13.00;5.10;;;;;;;8.82;80.92;97759.05;226865;1272;22586;-77
2024/03/30 04:05:36;;;;;;;20.70;6.70;;;;;;;8.83;81.00;97759.13;226883;1270;22561;-77
2024/03/30 04:10:38;;;;;;;15.90;7.00;;;;;;;8.84;81.23;97762.17;226854;1272;22547;-77
2024/03/30 04:15:40;;;;;;;23.20;7.40;;;;;;;8.84;81.15;97768.70;226827;1266;25403;-77
2024/03/30 04:20:41;;;;;;;17.70;6.50;;;;;;;8.82;81.16;97775.58;226857;1269;22519;-77
2024/03/30 04:25:44;;;;;;;19.60;5.80;;;;;;;8.81;81.12;97770.67;226790;1270;23007;-77
2024/03/30 04:30:54;;;;;;;18.20;5.70;;;;;;;8.81;81.17;97769.45;226938;1270;22633;-77
2024/03/30 04:36:03;;;;;;;;;;;;;;;8.81;81.25;97763.26;226952;1273;22523;-76
2024/03/30 04:41:06;;;;;;;14.80;5.10;;;;;;;8.82;81.30;97752.52;226734;1270;22645;-76
2024/03/30 04:46:08;;;;;;;15.40;4.90;;;;;;;8.87;81.52;97757.07;226892;1270;22546;-76
2024/03/30 04:51:10;;;;;;;17.40;6.00;;;;;;;8.92;81.34;97765.48;226878;1271;22531;-77
2024/03/30 04:56:11;;;;;;;17.00;5.30;;;;;;;8.97;81.45;97769.88;226839;1270;22613;-77
2024/03/30 05:01:16;;;;;;;18.00;5.10;;;;;;;9.05;81.44;97776.97;226937;1273;22531;-78
2024/03/30 05:06:18;;;;;;;21.80;6.40;;;;;;;9.18;81.57;97776.80;226918;1270;22525;-77
2024/03/30 05:11:20;;;;;;;26.30;6.30;;;;;;;9.30;81.44;97776.02;226780;1272;22531;-76
2024/03/30 05:16:22;;;;;;;21.70;6.20;;;;;;;9.44;81.35;97774.42;226794;1273;25249;-77
2024/03/30 05:21:25;;;;;;;20.30;6.40;;;;;;;9.61;81.39;97780.44;226836;1272;22530;-77
2024/03/30 05:26:26;;;;;;;16.80;6.20;;;;;;;9.79;81.35;97780.80;226845;1272;22474;-78
2024/03/30 05:31:29;;;;;;;19.50;6.30;;;;;;;9.99;81.28;97783.95;226704;1266;23664;-77
2024/03/30 05:36:32;;;;;;;21.80;6.90;;;;;;;10.20;81.25;97786.79;226848;1272;22502;-78
2024/03/30 05:41:34;;;;;;;25.40;6.10;;;;;;;10.44;80.95;97781.09;226769;1273;22549;-77
2024/03/30 05:46:36;;;;;;;19.80;6.20;;;;;;;10.70;80.91;97774.67;226859;1273;22538;-78
2024/03/30 05:51:37;;;;;;;21.90;7.70;;;;;;;10.99;80.71;97774.39;226819;1270;22548;-77
2024/03/30 05:56:39;;;;;;;28.00;10.30;;;;;;;11.30;80.44;97773.14;226896;1273;22561;-77
2024/03/30 06:01:41;;;;;;;26.40;7.80;;;;;;;11.63;80.29;97771.49;226794;1269;22806;-76
2024/03/30 06:06:43;;;;;;;28.10;7.50;;;;;;;11.98;79.68;97768.48;226874;1272;22538;-77
2024/03/30 06:11:45;;;;;;;19.50;6.70;;;;;;;12.33;79.29;97768.42;226866;1269;22531;-77
2024/03/30 06:16:48;;;;;;;21.80;6.70;;;;;;;12.59;78.79;97761.54;226944;1272;23242;-77
2024/03/30 06:21:50;;;;;;;22.10;7.20;;;;;;;12.82;78.36;97759.02;226933;1273;24353;-77
2024/03/30 06:26:51;;;;;;;19.30;5.50;;;;;;;13.07;77.95;97757.88;226820;1269;22554;-77
2024/03/30 06:31:53;;;;;;;20.80;5.40;;;;;;;13.28;77.28;97759.77;226800;1273;22539;-77
2024/03/30 06:36:55;;;;;;;23.70;6.30;;;;;;;13.40;77.09;97764.66;226723;1270;22542;-76
2024/03/30 06:47:18;;;;;;;23.70;4.90;;;;;;;13.64;76.23;97779.33;226854;1272;22993;-77
2024/03/30 06:52:20;;;;;;;25.10;4.60;;;;;;;13.86;75.87;97783.30;226863;1273;22745;-77
2024/03/30 06:57:21;;;;;;;22.90;5.20;;;;;;;14.08;75.88;97774.61;226801;1272;22600;-77
2024/03/30 07:02:24;;;;;;;23.10;4.90;;;;;;;14.29;75.48;97780.14;226885;1273;25400;-77
2024/03/30 07:07:26;;;;;;;20.30;5.00;;;;;;;14.49;74.73;97786.99;226834;1273;22533;-77
2024/03/30 07:12:28;;;;;;;42.10;16.60;;;;;;;14.67;74.41;97779.52;226767;1273;22533;-77
2024/03/30 07:17:33;;;;;;;19.90;4.30;;;;;;;14.87;73.65;97788.16;226839;1272;24242;-78
2024/03/30 07:22:35;;;;;;;22.30;4.30;;;;;;;15.08;73.08;97791.71;226868;1270;25403;-77
2024/03/30 07:27:40;;;;;;;28.70;5.30;;;;;;;15.31;72.70;97790.21;226982;1273;22542;-82
2024/03/30 07:32:42;;;;;;;27.10;5.40;;;;;;;15.53;71.80;97799.30;227059;1272;22986;-81
2024/03/30 07:37:44;;;;;;;21.40;4.40;;;;;;;15.77;71.50;97793.80;227002;1273;22522;-81
2024/03/30 07:42:46;;;;;;;22.50;4.90;;;;;;;15.99;70.44;97794.20;227020;1273;22531;-81
2024/03/30 07:47:49;;;;;;;21.70;5.20;;;;;;;16.23;70.13;97807.09;227044;1272;22464;-80
2024/03/30 07:52:51;;;;;;;30.00;5.30;;;;;;;16.45;69.33;97810.97;226907;1262;22585;-80
2024/03/30 07:57:53;;;;;;;32.30;4.80;;;;;;;16.68;68.55;97813.86;226942;1255;22547;-83
2024/03/30 08:03:01;;;;;;;29.40;4.60;;;;;;;16.89;68.07;97804.80;226802;1271;22543;-83
2024/03/30 08:08:04;;;;;;;31.10;6.10;;;;;;;17.13;67.26;97805.77;226924;1267;22577;-82
2024/03/30 08:13:06;;;;;;;28.30;5.70;;;;;;;17.39;66.78;97802.56;226933;1267;22664;-81
2024/03/30 08:18:08;;;;;;;28.70;5.20;;;;;;;17.61;65.63;97804.87;226963;1267;22548;-81
2024/03/30 08:23:12;;;;;;;31.00;5.60;;;;;;;17.82;64.80;97808.60;226721;1266;22535;-82
2024/03/30 08:28:14;;;;;;;33.80;5.00;;;;;;;18.03;64.59;97809.89;226857;1269;22527;-80
2024/03/30 08:33:16;;;;;;;32.70;6.10;;;;;;;18.26;64.63;97809.79;226908;1272;24194;-81
2024/03/30 08:38:18;;;;;;;32.90;5.80;;;;;;;18.52;64.52;97810.75;226950;1254;25279;-81
2024/03/30 08:43:25;;;;;;;29.10;5.80;;;;;;;18.77;64.09;97810.73;226841;1270;22531;-80
2024/03/30 08:48:26;;;;;;;36.00;6.80;;;;;;;19.00;63.36;97799.27;226871;1270;22563;-81
2024/03/30 08:53:29;;;;;;;34.00;6.10;;;;;;;19.19;62.74;97796.77;226747;1273;22536;-79
2024/03/30 08:58:31;;;;;;;32.90;6.70;;;;;;;19.38;61.38;97794.45;226726;1267;22552;-80
2024/03/30 09:03:33;;;;;;;32.50;6.90;;;;;;;19.53;60.54;97790.56;226902;1272;22575;-81
2024/03/30 09:08:35;;;;;;;33.00;6.40;;;;;;;19.77;60.88;97779.64;226717;1267;25256;-80
2024/03/30 09:13:39;;;;;;;33.30;7.00;;;;;;;19.99;59.00;97778.68;227240;1267;22531;-81
2024/03/30 09:18:41;;;;;;;42.60;6.80;;;;;;;20.03;58.77;97780.27;226952;1270;22531;-81
2024/03/30 09:23:45;;;;;;;62.20;26.70;;;;;;;20.29;59.69;97774.98;226815;1258;25464;-81
2024/03/30 09:28:47;;;;;;;38.10;7.90;;;;;;;20.59;58.85;97768.89;226833;1257;25861;-81
2024/03/30 09:33:49;;;;;;;41.20;7.60;;;;;;;20.89;58.43;97767.63;226723;1272;22535;-81
2024/03/30 09:38:51;;;;;;;35.00;6.90;;;;;;;21.14;57.34;97759.17;226973;1251;22567;-81
2024/03/30 09:43:54;;;;;;;39.30;7.50;;;;;;;21.52;57.24;97755.76;226837;1260;22567;-81
2024/03/30 09:48:57;;;;;;;38.40;7.40;;;;;;;21.86;56.59;97757.81;226790;1267;22169;-83
2024/03/30 09:54:01;;;;;;;41.80;7.90;;;;;;;22.19;55.59;97758.30;226800;1263;22703;-82
2024/03/30 09:59:05;;;;;;;34.90;7.70;;;;;;;22.45;53.88;97753.25;226795;1266;22561;-83
2024/03/30 10:04:07;;;;;;;47.40;8.80;;;;;;;22.38;51.63;97750.00;227045;1266;22576;-83
2024/03/30 10:09:14;;;;;;;38.70;7.50;;;;;;;22.25;52.23;97743.61;227075;1272;22519;-83
2024/03/30 10:14:31;;;;;;;53.40;8.60;;;;;;;22.33;52.78;97736.44;227088;1266;22661;-84
2024/03/30 10:19:34;;;;;;;46.70;8.60;;;;;;;22.31;52.08;97732.98;227029;1267;22564;-78
2024/03/30 10:24:36;;;;;;;39.90;7.50;;;;;;;22.43;53.11;97728.73;226798;1272;22677;-79
2024/03/30 10:29:38;;;;;;;36.60;6.90;;;;;;;22.70;53.11;97728.73;226909;1271;22548;-80
2024/03/30 10:34:40;;;;;;;43.80;8.00;;;;;;;22.97;52.97;97729.14;226810;1263;22562;-80
2024/03/30 10:39:42;;;;;;;31.60;7.70;;;;;;;23.33;53.16;97725.73;226783;1271;22599;-80
2024/03/30 10:44:43;;;;;;;42.50;7.00;;;;;;;23.44;49.38;97720.14;226874;1269;25506;-79
2024/03/30 10:49:45;;;;;;;37.60;7.50;;;;;;;23.21;48.08;97719.58;226775;1269;22651;-79
2024/03/30 10:54:48;;;;;;;35.40;7.10;;;;;;;22.98;47.39;97722.82;226881;1266;22576;-77
2024/03/30 10:59:51;;;;;;;37.50;5.80;;;;;;;22.89;48.41;97720.58;227081;1267;22550;-79
2024/03/30 11:04:53;;;;;;;36.90;8.20;;;;;;;22.86;48.42;97715.41;226797;1266;22544;-77
2024/03/30 11:09:57;;;;;;;37.00;6.90;;;;;;;22.83;48.60;97714.39;227069;1269;22526;-77
2024/03/30 11:14:59;;;;;;;29.70;6.30;;;;;;;22.90;48.24;97708.23;226862;1270;22540;-78
2024/03/30 11:20:14;;;;;;;32.90;6.00;;;;;;;22.96;47.64;97707.27;226784;1268;22604;-77
2024/03/30 11:25:22;;;;;;;32.80;6.00;;;;;;;23.02;48.05;97703.89;226830;1270;22546;-78
2024/03/30 11:30:35;;;;;;;40.60;6.80;;;;;;;23.03;47.86;97698.10;226910;1269;22572;-78
2024/03/30 11:36:17;;;;;;;34.00;7.00;;;;;;;23.03;47.50;97690.70;225672;1272;22551;-79
2024/03/30 11:41:20;;;;;;;31.30;5.70;;;;;;;23.27;48.56;97686.97;226485;1269;24231;-78
2024/03/30 11:46:23;;;;;;;35.50;5.80;;;;;;;23.30;46.38;97677.00;226731;1251;22648;-78
2024/03/30 11:51:30;;;;;;;29.90;5.80;;;;;;;23.10;45.68;97674.98;226608;1257;25401;-78
2024/03/30 11:56:33;;;;;;;38.70;7.30;;;;;;;23.14;45.98;97669.04;226741;1271;22572;-78
2024/03/30 12:01:35;;;;;;;42.20;6.70;;;;;;;23.09;45.24;97662.34;226730;1270;22730;-78
2024/03/30 12:06:38;;;;;;;41.50;11.80;;;;;;;22.93;45.41;97659.38;226951;1272;22749;-78
2024/03/30 12:11:40;;;;;;;36.20;5.70;;;;;;;22.90;45.28;97659.84;226969;1269;22554;-77
2024/03/30 12:16:41;;;;;;;38.30;6.10;;;;;;;23.09;45.63;97657.20;227314;1266;22547;-78
2024/03/30 12:21:43;;;;;;;30.90;5.20;;;;;;;23.45;45.16;97656.29;227188;1267;25297;-77
2024/03/30 12:26:46;;;;;;;27.00;5.50;;;;;;;23.74;45.53;97652.67;227407;1258;22561;-77
2024/03/30 12:31:48;;;;;;;31.10;5.90;;;;;;;23.88;44.48;97637.12;227255;1269;22539;-77
2024/03/30 12:36:51;;;;;;;23.90;4.60;;;;;;;23.89;43.43;97637.48;227406;1270;22560;-77
2024/03/30 12:41:53;;;;;;;23.10;4.20;;;;;;;23.93;42.69;97636.94;227116;1272;22541;-77
2024/03/30 12:46:55;;;;;;;31.20;5.20;;;;;;;23.92;41.42;97626.98;227317;1269;22538;-76
2024/03/30 12:51:57;;;;;;;25.90;4.80;;;;;;;23.82;41.96;97625.85;227244;1272;22629;-77
2024/03/30 12:56:59;;;;;;;32.10;5.90;;;;;;;23.73;41.77;97630.95;227105;1272;22546;-77
2024/03/30 13:02:04;;;;;;;30.00;4.80;;;;;;;23.77;41.95;97622.42;227071;1272;24200;-76
2024/03/30 13:07:06;;;;;;;31.90;5.90;;;;;;;23.86;41.06;97616.38;227041;1272;22539;-77
2024/03/30 13:12:17;;;;;;;30.80;5.50;;;;;;;23.92;40.60;97617.58;227144;1272;23367;-77
2024/03/30 13:17:19;;;;;;;28.70;5.20;;;;;;;23.88;40.28;97615.70;226906;1264;208679;-77
2024/03/30 13:22:21;;;;;;;27.40;4.20;;;;;;;23.80;40.42;97616.59;227317;1270;22705;-77
2024/03/30 13:27:23;;;;;;;36.10;5.20;;;;;;;23.72;40.92;97615.74;227061;1272;22580;-77
2024/03/30 13:32:25;;;;;;;37.20;6.00;;;;;;;23.69;40.91;97610.42;227124;1270;22545;-77
2024/03/30 13:37:27;;;;;;;42.50;8.30;;;;;;;23.68;39.12;97609.80;227066;1270;22522;-77
2024/03/30 13:42:30;;;;;;;34.70;6.00;;;;;;;23.49;39.19;97606.98;227300;1272;22542;-77
2024/03/30 13:47:32;;;;;;;35.40;6.80;;;;;;;23.35;39.59;97607.63;227336;1270;25421;-78
2024/03/30 13:52:34;;;;;;;33.00;5.70;;;;;;;23.27;40.63;97607.57;227120;1272;23204;-77
2024/03/30 13:57:36;;;;;;;36.50;6.80;;;;;;;23.23;41.25;97603.33;227092;1271;22529;-77
2024/03/30 14:02:38;;;;;;;37.30;6.00;;;;;;;23.21;41.43;97605.67;227074;1269;22925;-76
2024/03/30 14:07:40;;;;;;;32.70;6.00;;;;;;;23.17;41.81;97599.05;227337;1267;24264;-77
2024/03/30 14:12:42;;;;;;;41.70;6.00;;;;;;;23.08;41.10;97592.01;227154;1270;22525;-78
2024/03/30 14:17:48;;;;;;;37.60;6.00;;;;;;;23.02;41.67;97595.35;227113;1270;22546;-77
2024/03/30 14:22:50;;;;;;;30.40;5.10;;;;;;;22.98;41.29;97591.89;227341;1270;22633;-77
2024/03/30 14:27:52;;;;;;;35.80;6.50;;;;;;;22.91;41.77;97582.56;227107;1270;22691;-77
2024/03/30 14:32:54;;;;;;;30.00;5.90;;;;;;;22.84;42.09;97574.48;227350;1270;22535;-77
2024/03/30 14:37:56;;;;;;;34.80;6.20;;;;;;;22.79;42.08;97574.71;227058;1270;24178;-78
2024/03/30 14:42:58;;;;;;;36.30;6.00;;;;;;;22.84;42.32;97563.69;227325;1270;22535;-77
2024/03/30 14:48:00;;;;;;;28.20;5.10;;;;;;;22.95;42.41;97559.38;227306;1267;22558;-77
2024/03/30 14:53:03;;;;;;;38.50;5.50;;;;;;;23.13;41.87;97553.71;227133;1270;22616;-76
2024/03/30 14:58:05;;;;;;;41.10;7.40;;;;;;;23.33;41.70;97546.05;227349;1270;22747;-77
2024/03/30 15:03:06;;;;;;;35.90;6.50;;;;;;;23.56;40.74;97543.70;227221;1272;22664;-77
2024/03/30 15:08:08;;;;;;;39.90;6.70;;;;;;;23.75;40.45;97546.31;227152;1269;22552;-76
2024/03/30 15:13:10;;;;;;;36.90;7.00;;;;;;;23.84;39.52;97550.36;227364;1270;22546;-77
2024/03/30 15:18:12;;;;;;;33.70;6.30;;;;;;;23.82;39.04;97560.46;227189;1267;22559;-76
2024/03/30 15:23:14;;;;;;;47.50;7.10;;;;;;;23.68;38.52;97562.20;227292;1263;22606;-78
2024/03/30 15:28:17;;;;;;;39.30;7.20;;;;;;;23.52;38.10;97568.63;227112;1269;22535;-76
2024/03/30 15:33:18;;;;;;;43.70;6.90;;;;;;;23.34;38.08;97574.82;227077;1248;22784;-76
2024/03/30 15:38:22;;;;;;;46.00;7.40;;;;;;;23.12;38.30;97571.66;227186;1272;22626;-77
2024/03/30 15:43:25;;;;;;;39.40;7.10;;;;;;;22.95;38.92;97572.44;227328;1270;22541;-77
2024/03/30 15:48:28;;;;;;;43.10;8.70;;;;;;;22.78;39.45;97574.17;227368;1272;22525;-76
2024/03/30 15:53:31;;;;;;;36.90;6.40;;;;;;;22.66;40.34;97573.14;227056;1270;24164;-77
2024/03/30 15:58:33;;;;;;;42.40;6.80;;;;;;;22.56;40.86;97574.48;227079;1270;22920;-76
2024/03/30 16:03:37;;;;;;;46.60;6.90;;;;;;;22.40;40.67;97568.60;227083;1270;25365;-77
2024/03/30 16:08:39;;;;;;;50.70;7.40;;;;;;;22.18;40.81;97571.81;227137;1270;22575;-77
2024/03/30 16:13:40;;;;;;;43.00;6.50;;;;;;;21.99;41.31;97565.89;227327;1270;22697;-77
2024/03/30 16:18:42;;;;;;;44.20;7.50;;;;;;;21.79;41.74;97568.63;227251;1267;22730;-77
2024/03/30 16:23:44;;;;;;;41.30;6.50;;;;;;;21.58;42.09;97567.56;227110;1270;22553;-77
2024/03/30 16:28:46;;;;;;;45.00;7.30;;;;;;;21.35;42.22;97567.58;227379;1267;22551;-77
2024/03/30 16:33:48;;;;;;;40.30;6.70;;;;;;;21.11;42.57;97568.27;227136;1269;22538;-77
2024/03/30 16:38:50;;;;;;;45.10;7.90;;;;;;;20.88;42.93;97567.06;227269;1271;22558;-77
2024/03/30 16:43:56;;;;;;;36.80;7.60;;;;;;;20.62;43.23;97565.30;227325;1264;24220;-77
2024/03/30 16:48:58;;;;;;;46.00;7.20;;;;;;;20.35;43.71;97566.70;227093;1269;22534;-76
2024/03/30 16:54:00;;;;;;;44.80;6.60;;;;;;;20.08;43.80;97572.20;227171;1270;22556;-78
2024/03/30 16:59:02;;;;;;;39.80;7.30;;;;;;;19.82;44.35;97578.52;227106;1269;22547;-76
2024/03/30 17:04:04;;;;;;;34.30;6.20;;;;;;;19.56;44.90;97575.00;227288;1263;23123;-77
2024/03/30 17:09:05;;;;;;;38.60;6.60;;;;;;;19.31;45.45;97577.55;227071;1272;22590;-77
2024/03/30 17:14:07;;;;;;;34.10;6.10;;;;;;;19.06;45.86;97587.33;227108;1269;22555;-77
2024/03/30 17:19:09;;;;;;;34.10;6.30;;;;;;;18.82;46.17;97591.13;227128;1270;22539;-77
2024/03/30 17:24:12;;;;;;;43.30;6.70;;;;;;;18.58;46.64;97596.05;227291;1270;22622;-77
2024/03/30 17:29:13;;;;;;;41.00;7.40;;;;;;;18.34;47.19;97601.38;227264;1272;22607;-77
2024/03/30 17:34:16;;;;;;;42.70;8.50;;;;;;;18.13;47.41;97612.38;227099;1266;22644;-76
2024/03/30 17:39:18;;;;;;;45.10;8.00;;;;;;;17.91;47.98;97631.57;227338;1269;22556;-76
2024/03/30 17:44:20;;;;;;;36.50;7.10;;;;;;;17.69;48.32;97643.94;227071;1270;22543;-76
2024/03/30 17:49:23;;;;;;;32.80;6.70;;;;;;;17.48;48.67;97650.08;227336;1269;22545;-77
2024/03/30 17:54:25;;;;;;;36.20;7.40;;;;;;;17.27;48.97;97648.37;227346;1270;22553;-76
2024/03/30 17:59:27;;;;;;;41.40;9.20;;;;;;;17.09;49.27;97659.36;227085;1267;22632;-76
2024/03/30 18:04:29;;;;;;;51.50;7.60;;;;;;;16.92;49.71;97663.61;227344;1249;25558;-76
2024/03/30 18:09:30;;;;;;;46.10;10.50;;;;;;;16.76;49.98;97662.55;227316;1267;22550;-77
2024/03/30 18:14:32;;;;;;;46.90;8.80;;;;;;;16.64;50.22;97658.69;227099;1272;22534;-77
2024/03/30 18:19:35;;;;;;;46.20;9.90;;;;;;;16.56;50.49;97654.94;227238;1272;22554;-75
2024/03/30 18:24:37;;;;;;;49.40;11.40;;;;;;;16.52;50.59;97649.45;227105;1270;22543;-77
2024/03/30 18:29:43;;;;;;;46.00;10.60;;;;;;;16.48;50.58;97652.61;227017;1270;22559;-77
2024/03/30 18:34:45;;;;;;;38.00;8.30;;;;;;;16.46;50.66;97647.48;227245;1272;22546;-77
2024/03/30 18:39:47;;;;;;;44.30;8.80;;;;;;;16.44;50.70;97643.59;227096;1270;22542;-78
2024/03/30 18:44:49;;;;;;;46.90;9.10;;;;;;;16.44;50.80;97647.52;227324;1263;22544;-77
2024/03/30 18:49:51;;;;;;;58.20;9.30;;;;;;;16.43;50.65;97653.48;227329;1269;22584;-77
2024/03/30 18:54:53;;;;;;;55.80;12.40;;;;;;;16.38;50.72;97659.94;227367;1270;22546;-76
2024/03/30 18:59:55;;;;;;;46.70;11.50;;;;;;;16.33;51.08;97664.95;227299;1270;22641;-76
2024/03/30 19:04:57;;;;;;;49.90;11.80;;;;;;;16.23;51.59;97668.69;227179;1270;22551;-76
2024/03/30 19:10:00;;;;;;;44.30;11.40;;;;;;;16.07;52.04;97663.10;227113;1269;22578;-77
2024/03/30 19:15:03;;;;;;;56.30;12.40;;;;;;;15.89;52.35;97658.47;227111;1266;22547;-77
2024/03/30 19:20:05;;;;;;;60.50;14.90;;;;;;;15.73;52.69;97658.23;227116;1266;22545;-76
2024/03/30 19:25:07;;;;;;;62.40;16.70;;;;;;;15.62;52.83;97653.09;227331;1267;24206;-76
2024/03/30 19:30:09;;;;;;;70.20;16.00;;;;;;;15.54;52.82;97651.92;227382;1270;22622;-77
2024/03/30 19:35:11;;;;;;;51.70;13.40;;;;;;;15.51;52.95;97652.61;227112;1269;22541;-77
2024/03/30 19:40:13;;;;;;;56.20;13.80;;;;;;;15.53;53.00;97656.27;227076;1270;23209;-77
2024/03/30 19:45:15;;;;;;;65.60;19.10;;;;;;;15.57;52.94;97653.00;227365;1266;22674;-76
2024/03/30 19:50:17;;;;;;;59.70;14.70;;;;;;;15.61;52.99;97653.13;227290;1272;22562;-77
2024/03/30 19:55:18;;;;;;;61.00;17.00;;;;;;;15.60;53.08;97652.00;227078;1270;26097;-77
2024/03/30 20:00:20;;;;;;;57.80;14.10;;;;;;;15.61;53.05;97651.05;227353;1268;24219;-76
2024/03/30 20:05:25;;;;;;;49.20;10.60;;;;;;;15.62;53.13;97645.22;227132;1270;22564;-76
2024/03/30 20:10:27;;;;;;;37.30;9.10;;;;;;;15.67;53.25;97640.54;227106;1270;22536;-77
2024/03/30 20:15:29;;;;;;;46.80;9.40;;;;;;;15.71;53.35;97637.83;227138;1266;23839;-77
2024/03/30 20:20:30;;;;;;;37.00;8.20;;;;;;;15.70;53.54;97640.95;227338;1272;22541;-77
2024/03/30 20:25:32;;;;;;;38.70;7.70;;;;;;;15.69;53.68;97641.31;227145;1270;22545;-76
2024/03/30 20:30:36;;;;;;;40.50;8.80;;;;;;;15.68;53.89;97639.80;227202;1271;22599;-77
2024/03/30 20:35:38;;;;;;;34.00;7.10;;;;;;;15.64;54.11;97638.69;227188;1270;22559;-78
2024/03/30 20:40:40;;;;;;;29.80;7.40;;;;;;;15.60;54.30;97638.15;227361;1270;24202;-77
2024/03/30 20:45:45;;;;;;;40.70;8.30;;;;;;;15.57;54.49;97631.59;227165;1270;22534;-76
2024/03/30 20:50:47;;;;;;;42.50;7.80;;;;;;;15.52;54.79;97627.02;227169;1270;22546;-77
2024/03/30 20:55:49;;;;;;;31.10;6.80;;;;;;;15.47;54.95;97626.89;227313;1270;22921;-77
2024/03/30 21:00:51;;;;;;;39.60;7.00;;;;;;;15.43;55.22;97623.86;227357;1270;25336;-77
2024/03/30 21:06:02;;;;;;;28.20;5.90;;;;;;;15.37;55.52;97619.27;227361;1270;22642;-76
2024/03/30 21:11:04;;;;;;;32.60;7.20;;;;;;;15.31;55.59;97621.37;227121;1269;22864;-77
2024/03/30 21:16:07;;;;;;;30.80;6.10;;;;;;;15.24;55.89;97625.38;227321;1260;22661;-76
2024/03/30 21:21:10;;;;;;;31.70;5.50;;;;;;;15.14;56.24;97631.48;227171;1272;22551;-76
2024/03/30 21:26:12;;;;;;;29.20;6.40;;;;;;;15.06;56.51;97633.33;227136;1269;23180;-76
2024/03/30 21:31:14;;;;;;;29.50;6.60;;;;;;;15.02;56.65;97640.70;227134;1269;22539;-77
2024/03/30 21:36:16;;;;;;;28.20;6.50;;;;;;;14.98;56.97;97639.06;227330;1269;22541;-75
2024/03/30 21:41:18;;;;;;;29.50;6.20;;;;;;;14.93;57.15;97637.65;227144;1270;23009;-77
2024/03/30 21:46:20;;;;;;;35.90;5.90;;;;;;;14.87;57.37;97634.10;227384;1269;22547;-76
2024/03/30 21:51:21;;;;;;;38.60;6.90;;;;;;;14.79;57.69;97630.80;227346;1270;22544;-76
2024/03/30 21:56:23;;;;;;;23.90;5.70;;;;;;;14.70;57.78;97635.13;227170;1268;22580;-77
2024/03/30 22:01:25;;;;;;;32.00;6.60;;;;;;;14.58;58.07;97636.31;227327;1263;22545;-76
2024/03/30 22:06:29;;;;;;;30.70;6.40;;;;;;;14.45;58.15;97631.05;227382;1272;22541;-76
2024/03/30 22:11:30;;;;;;;31.90;7.50;;;;;;;14.31;58.48;97630.05;227198;1272;25438;-76
2024/03/30 22:16:33;;;;;;;32.70;7.60;;;;;;;14.18;58.58;97624.14;227348;1269;22549;-77
2024/03/30 22:21:35;;;;;;;24.60;6.90;;;;;;;14.07;58.86;97622.14;227102;1272;22574;-77
2024/03/30 22:26:37;;;;;;;31.40;6.00;;;;;;;14.02;59.37;97625.87;227045;1270;25473;-76
2024/03/30 22:31:39;;;;;;;32.90;5.80;;;;;;;13.99;59.52;97622.95;227072;1270;22606;-77
2024/03/30 22:36:41;;;;;;;24.20;5.20;;;;;;;14.00;59.87;97628.66;227366;1269;24216;-76
2024/03/30 22:41:43;;;;;;;28.50;7.20;;;;;;;14.03;60.01;97630.67;227172;1269;22551;-76
2024/03/30 22:46:46;;;;;;;28.50;7.20;;;;;;;14.06;60.41;97630.63;227113;1269;22546;-77
2024/03/30 22:51:48;;;;;;;38.80;7.40;;;;;;;14.03;60.59;97628.35;227225;1267;22586;-77
2024/03/30 22:56:50;;;;;;;29.60;7.10;;;;;;;13.98;60.80;97624.36;227101;1272;22542;-76
2024/03/30 23:01:53;;;;;;;26.10;6.80;;;;;;;13.95;60.81;97620.81;227363;1269;23204;-77
2024/03/30 23:06:55;;;;;;;31.90;7.00;;;;;;;13.89;60.99;97621.39;227324;1269;22523;-77
2024/03/30 23:11:58;;;;;;;34.30;7.50;;;;;;;13.83;61.21;97622.69;227337;1264;22601;-77
2024/03/30 23:17:00;;;;;;;26.80;7.20;;;;;;;13.77;61.19;97621.00;227135;1270;22562;-77
2024/03/30 23:22:02;;;;;;;24.50;6.30;;;;;;;13.73;61.63;97615.30;227369;1272;22581;-77